Time;durP1;ratioP1;P1;durP2;ratioP2;P2;SDS_P1;SDS_P2;PMS_P1;PMS_P2;Temp;Humidity;BMP_temperature;BMP_pressure;BME280_temperature;BME280_humidity;BME280_pressure;Samples;Min_cycle;Max_cycle;Signal;HPM_P1;HPM_P2
2023/12/09 00:00:37;;;;;;;38.42;17.85;;;;;;;7.36;100.00;162489.88;5068918;28;20484;-66
2023/12/09 00:03:03;;;;;;;28.40;14.57;;;;;;;7.42;100.00;162504.66;5070930;28;20460;-59
2023/12/09 00:05:29;;;;;;;26.38;12.40;;;;;;;7.39;100.00;162497.91;5050808;28;20202;-59
2023/12/09 00:07:54;;;;;;;31.95;13.68;;;;;;;7.39;100.00;162497.91;5050075;28;20476;-59
2023/12/09 00:10:19;;;;;;;30.38;13.60;;;;;;;7.40;100.00;162499.28;5048905;28;20045;-59
2023/12/09 00:12:45;;;;;;;33.00;16.88;;;;;;;7.41;100.00;162502.00;5050615;28;20025;-59
2023/12/09 00:15:11;;;;;;;39.58;14.27;;;;;;;7.39;100.00;162497.91;5048832;28;20040;-60
2023/12/09 00:17:36;;;;;;;29.13;14.35;;;;;;;7.46;100.00;162515.44;5051343;28;20067;-59
2023/12/09 00:20:04;;;;;;;31.42;12.60;;;;;;;7.50;100.00;162524.88;5049192;28;20122;-58
2023/12/09 00:22:30;;;;;;;36.13;14.50;;;;;;;7.48;100.00;162520.84;5049763;28;20021;-60
2023/12/09 00:24:55;;;;;;;25.67;14.98;;;;;;;7.47;100.00;162519.47;5049184;28;20590;-60
2023/12/09 00:27:20;;;;;;;32.83;18.08;;;;;;;7.40;100.00;162499.28;5063655;28;20031;-59
2023/12/09 00:29:46;;;;;;;30.42;14.07;;;;;;;7.45;100.00;162512.75;5068761;28;20040;-60
2023/12/09 00:32:11;;;;;;;26.67;15.32;;;;;;;7.45;100.00;162512.75;5070439;28;20101;-61
2023/12/09 00:34:37;;;;;;;54.10;14.77;;;;;;;7.48;100.00;162520.84;5068862;28;20056;-60
2023/12/09 00:37:02;;;;;;;48.47;18.98;;;;;;;7.46;100.00;162515.44;5058439;28;20068;-60
2023/12/09 00:39:27;;;;;;;41.20;12.57;;;;;;;7.43;100.00;162507.34;5049029;28;20075;-60
2023/12/09 00:41:53;;;;;;;37.08;14.25;;;;;;;7.40;100.00;162500.63;5050117;28;20021;-60
2023/12/09 00:44:20;;;;;;;39.42;13.38;;;;;;;7.41;100.00;162502.00;5061790;28;20037;-60
2023/12/09 00:46:46;;;;;;;38.47;13.68;;;;;;;7.43;100.00;162507.34;5058412;28;20056;-60
2023/12/09 00:49:12;;;;;;;35.85;12.65;;;;;;;7.42;100.00;162504.66;5049018;28;20471;-60
2023/12/09 00:51:37;;;;;;;30.80;12.82;;;;;;;7.43;100.00;162507.34;5049854;28;20025;-60
2023/12/09 00:54:02;;;;;;;34.90;10.63;;;;;;;7.42;100.00;162504.66;5048922;28;20522;-60
2023/12/09 00:56:28;;;;;;;34.97;15.68;;;;;;;7.39;100.00;162496.59;5055614;28;20028;-60
2023/12/09 00:58:53;;;;;;;31.45;13.00;;;;;;;7.41;100.00;162503.31;5059193;28;20037;-60
2023/12/09 01:01:18;;;;;;;31.55;15.07;;;;;;;7.40;100.00;162499.28;5048454;28;20044;-60
2023/12/09 01:03:44;;;;;;;27.23;11.52;;;;;;;7.37;100.00;162491.19;5050868;28;20017;-60
2023/12/09 01:06:09;;;;;;;32.15;13.23;;;;;;;7.30;100.00;162475.03;5052246;28;20037;-61
2023/12/09 01:08:34;;;;;;;43.65;16.17;;;;;;;7.27;100.00;162466.94;5053747;28;20408;-60
2023/12/09 01:11:00;;;;;;;35.90;14.70;;;;;;;7.27;100.00;162466.94;5052660;28;20064;-60
2023/12/09 01:13:25;;;;;;;27.98;12.45;;;;;;;7.29;100.00;162472.34;5059055;28;20024;-60
2023/12/09 01:15:50;;;;;;;29.70;13.63;;;;;;;7.34;100.00;162483.09;5054050;28;20052;-61
2023/12/09 01:18:16;;;;;;;23.42;13.25;;;;;;;7.32;100.00;162477.75;5053842;28;20017;-60
2023/12/09 01:20:41;;;;;;;31.30;14.23;;;;;;;7.29;100.00;162472.34;5052009;28;20037;-60
2023/12/09 01:23:07;;;;;;;35.08;13.32;;;;;;;7.28;100.00;162469.63;5053909;28;20071;-61
2023/12/09 01:25:33;;;;;;;28.20;13.73;;;;;;;7.25;100.00;162461.59;5051887;28;20488;-60
2023/12/09 01:27:58;;;;;;;20.55;10.18;;;;;;;7.29;100.00;162472.34;5070806;28;20028;-60
2023/12/09 01:30:23;;;;;;;25.75;11.43;;;;;;;7.26;100.00;162464.22;5065677;28;20431;-60
2023/12/09 01:32:49;;;;;;;51.83;14.98;;;;;;;7.25;100.00;162461.59;5053522;28;20071;-60
2023/12/09 01:35:14;;;;;;;33.00;12.90;;;;;;;7.26;100.00;162464.22;5051673;28;20049;-60
2023/12/09 01:37:39;;;;;;;38.72;13.15;;;;;;;7.27;100.00;162465.63;5053166;28;20049;-60
2023/12/09 01:40:05;;;;;;;20.98;11.35;;;;;;;7.24;100.00;162458.88;5052459;28;20399;-60
2023/12/09 01:42:30;;;;;;;34.67;11.98;;;;;;;7.22;100.00;162452.16;5072923;28;20073;-60
2023/12/09 01:44:56;;;;;;;26.88;12.13;;;;;;;7.20;100.00;162448.06;5071620;28;20051;-59
2023/12/09 01:47:21;;;;;;;33.10;13.48;;;;;;;7.25;100.00;162461.59;5059342;28;20039;-60
2023/12/09 01:49:47;;;;;;;22.92;11.88;;;;;;;7.20;100.00;162448.06;5051706;28;20389;-60
2023/12/09 01:52:12;;;;;;;28.50;12.38;;;;;;;7.23;100.00;162456.19;5052922;28;20056;-60
2023/12/09 01:54:38;;;;;;;33.97;14.98;;;;;;;7.23;100.00;162456.19;5051533;28;20117;-61
2023/12/09 01:57:04;;;;;;;26.27;12.63;;;;;;;7.26;100.00;162462.91;5065679;28;20025;-60
2023/12/09 01:59:30;;;;;;;37.67;12.90;;;;;;;7.21;100.00;162450.78;5071006;28;20115;-60
2023/12/09 02:01:56;;;;;;;33.53;12.18;;;;;;;7.25;100.00;162460.22;5071582;28;20020;-60
2023/12/09 02:04:22;;;;;;;38.47;13.82;;;;;;;7.22;100.00;162453.47;5055317;28;20044;-60
2023/12/09 02:06:47;;;;;;;29.10;12.10;;;;;;;7.23;100.00;162456.19;5062190;28;20024;-60
2023/12/09 02:09:13;;;;;;;25.77;12.18;;;;;;;7.25;100.00;162460.22;5051390;28;20032;-60
2023/12/09 02:11:50;;;;;;;36.60;12.55;;;;;;;7.25;100.00;162461.59;5053068;28;20025;-60
2023/12/09 02:14:24;;;;;;;37.03;13.50;;;;;;;7.23;100.00;162456.19;5050659;28;20132;-60
2023/12/09 02:17:00;;;;;;;26.83;15.13;;;;;;;7.22;100.00;162452.16;5061397;28;20479;-60
2023/12/09 02:19:26;;;;;;;25.65;11.73;;;;;;;7.21;100.00;162450.78;5057164;28;20048;-60
2023/12/09 02:21:59;;;;;;;29.02;13.43;;;;;;;7.11;100.00;162423.88;5052480;28;20032;-60
2023/12/09 02:24:26;;;;;;;27.77;12.82;;;;;;;7.21;100.00;162450.78;5051053;28;20066;-60
2023/12/09 02:26:52;;;;;;;29.73;12.88;;;;;;;7.19;100.00;162445.38;5062732;28;20024;-60
2023/12/09 02:29:19;;;;;;;30.42;14.15;;;;;;;7.23;100.00;162456.19;5070370;28;20052;-59
2023/12/09 02:31:47;;;;;;;28.30;14.27;;;;;;;7.18;100.00;162441.34;5072481;28;20025;-60
2023/12/09 02:34:14;;;;;;;37.22;12.80;;;;;;;7.12;100.00;162426.53;5067308;28;20556;-60
2023/12/09 02:36:42;;;;;;;47.38;15.82;;;;;;;7.12;100.00;162426.53;5052105;28;20546;-60
2023/12/09 02:39:10;;;;;;;26.60;12.60;;;;;;;7.14;100.00;162431.94;5050756;28;20033;-60
2023/12/09 02:41:35;;;;;;;36.58;13.60;;;;;;;7.11;100.00;162423.88;5052094;28;20063;-59
2023/12/09 02:44:01;;;;;;;42.05;15.95;;;;;;;7.15;100.00;162434.63;5050428;28;20380;-59
2023/12/09 02:46:27;;;;;;;22.45;11.57;;;;;;;7.13;100.00;162429.22;5058024;28;20044;-60
2023/12/09 02:48:52;;;;;;;41.85;14.45;;;;;;;7.14;100.00;162431.94;5072016;28;20028;-59
2023/12/09 02:51:17;;;;;;;35.00;14.93;;;;;;;7.06;100.00;162411.75;5057832;28;20102;-59
2023/12/09 02:53:44;;;;;;;54.75;15.82;;;;;;;7.09;100.00;162418.47;5060017;28;20481;-59
2023/12/09 02:56:09;;;;;;;39.88;15.32;;;;;;;7.13;100.00;162429.22;5066489;28;20040;-59
2023/12/09 02:58:35;;;;;;;39.33;16.50;;;;;;;7.11;100.00;162425.19;5051485;28;20021;-59
2023/12/09 03:01:00;;;;;;;54.72;16.90;;;;;;;7.11;100.00;162425.19;5050201;28;20037;-59
2023/12/09 03:03:26;;;;;;;27.85;11.18;;;;;;;7.12;100.00;162426.53;5051672;28;20039;-59
2023/12/09 03:05:51;;;;;;;31.33;14.80;;;;;;;7.08;100.00;162415.78;5050837;28;20594;-59
2023/12/09 03:08:16;;;;;;;35.70;15.00;;;;;;;7.03;100.00;162402.31;5051547;28;20368;-59
2023/12/09 03:10:42;;;;;;;46.58;16.27;;;;;;;7.05;100.00;162407.66;5050193;28;20044;-59
2023/12/09 03:13:07;;;;;;;33.92;14.65;;;;;;;7.07;100.00;162413.06;5051310;28;20029;-60
2023/12/09 03:15:32;;;;;;;29.38;13.65;;;;;;;7.04;100.00;162404.97;5049897;28;20059;-60
2023/12/09 03:17:58;;;;;;;31.40;12.20;;;;;;;7.00;100.00;162395.53;5051600;28;20086;-60
2023/12/09 03:20:25;;;;;;;36.05;15.10;;;;;;;6.97;100.00;162388.81;5051410;28;20055;-59
2023/12/09 03:22:50;;;;;;;26.52;11.32;;;;;;;7.02;100.00;162399.63;5063346;28;20588;-59
2023/12/09 03:25:15;;;;;;;45.00;12.77;;;;;;;6.96;100.00;162386.13;5049850;28;20103;-59
2023/12/09 03:27:41;;;;;;;23.40;12.90;;;;;;;6.93;100.00;162378.06;5050850;28;20415;-60
2023/12/09 03:30:07;;;;;;;32.08;14.40;;;;;;;6.91;100.00;162372.66;5049840;28;20052;-59
2023/12/09 03:32:32;;;;;;;32.60;11.45;;;;;;;6.87;100.00;162361.91;5051098;28;20530;-60
2023/12/09 03:34:57;;;;;;;26.65;11.73;;;;;;;6.86;100.00;162359.22;5049382;28;20115;-60
2023/12/09 03:37:23;;;;;;;34.80;12.13;;;;;;;6.85;100.00;162356.53;5063809;28;20036;-60
2023/12/09 03:39:49;;;;;;;27.05;12.70;;;;;;;6.81;100.00;162345.78;5054308;28;20049;-59
2023/12/09 03:42:14;;;;;;;42.83;12.50;;;;;;;6.70;100.00;162316.13;5050346;28;20028;-59
2023/12/09 03:44:39;;;;;;;27.80;9.60;;;;;;;6.66;100.00;162308.03;5049589;28;20047;-60
2023/12/09 03:47:05;;;;;;;24.20;11.45;;;;;;;6.61;100.00;162294.56;5061014;28;20035;-59
2023/12/09 03:49:31;;;;;;;23.35;11.35;;;;;;;6.56;100.00;162281.13;5069015;28;20036;-59
2023/12/09 03:51:56;;;;;;;25.10;11.75;;;;;;;6.48;100.00;162260.91;5071107;28;20554;-61
2023/12/09 03:54:22;;;;;;;20.80;9.45;;;;;;;6.39;100.00;162235.34;5068088;28;20037;-60
2023/12/09 03:56:48;;;;;;;34.40;13.35;;;;;;;6.34;100.00;162223.22;5050709;28;20021;-59
2023/12/09 03:59:13;;;;;;;26.85;9.52;;;;;;;6.33;100.00;162220.53;5049057;28;20017;-59
2023/12/09 04:01:47;;;;;;;22.40;10.82;;;;;;;6.26;100.00;162203.06;5050681;28;20025;-59
2023/12/09 04:04:12;;;;;;;44.08;12.35;;;;;;;6.21;100.00;162189.59;5048843;28;20465;-59
2023/12/09 04:06:37;;;;;;;28.75;11.45;;;;;;;6.17;100.00;162178.81;5056543;28;20078;-59
2023/12/09 04:09:03;;;;;;;23.45;10.80;;;;;;;6.12;100.00;162165.38;5069304;28;20372;-58
2023/12/09 04:11:28;;;;;;;28.83;11.35;;;;;;;6.03;100.00;162143.84;5060017;28;20070;-59
2023/12/09 04:13:54;;;;;;;34.72;14.60;;;;;;;5.93;100.00;162116.84;5050643;28;20048;-59
2023/12/09 04:16:19;;;;;;;39.30;15.55;;;;;;;5.91;100.00;162111.50;5051728;28;20093;-59
2023/12/09 04:18:44;;;;;;;31.30;11.70;;;;;;;5.81;100.00;162084.56;5070113;28;20028;-59
2023/12/09 04:21:10;;;;;;;31.30;10.20;;;;;;;5.79;100.00;162080.53;5069070;28;20844;-59
2023/12/09 04:23:35;;;;;;;23.90;9.75;;;;;;;5.72;100.00;162063.03;5070480;28;20028;-59
2023/12/09 04:26:00;;;;;;;22.90;10.60;;;;;;;5.65;100.00;162044.19;5067978;28;20040;-59
2023/12/09 04:28:26;;;;;;;34.78;10.77;;;;;;;5.65;100.00;162044.19;5050136;28;20427;-59
2023/12/09 04:30:51;;;;;;;27.75;12.25;;;;;;;5.59;100.00;162028.06;5049146;28;20045;-63
2023/12/09 04:33:16;;;;;;;23.17;11.30;;;;;;;5.66;100.00;162046.91;5050083;28;20025;-59
2023/12/09 04:35:42;;;;;;;26.27;10.35;;;;;;;5.70;100.00;162057.63;5048652;28;20053;-60
2023/12/09 04:38:07;;;;;;;41.30;13.13;;;;;;;5.76;100.00;162072.44;5067801;28;20052;-60
2023/12/09 04:40:33;;;;;;;33.55;13.70;;;;;;;5.78;100.00;162076.47;5070953;28;20613;-60
2023/12/09 04:42:58;;;;;;;28.42;11.07;;;;;;;5.70;100.00;162057.63;5054024;28;20032;-60
2023/12/09 04:45:23;;;;;;;30.75;13.52;;;;;;;5.63;100.00;162038.81;5052644;28;20037;-60
2023/12/09 04:47:49;;;;;;;47.35;14.80;;;;;;;5.61;100.00;162033.47;5068846;28;20039;-60
2023/12/09 04:50:15;;;;;;;35.40;10.05;;;;;;;5.55;100.00;162017.28;5072654;28;20044;-60
2023/12/09 04:52:40;;;;;;;40.00;11.05;;;;;;;5.44;100.00;161987.69;5074406;28;20027;-60
2023/12/09 04:55:08;;;;;;;25.50;12.20;;;;;;;5.34;100.00;161963.47;5072885;28;20077;-60
2023/12/09 04:57:33;;;;;;;36.55;12.80;;;;;;;5.34;100.00;161962.16;5060867;28;20048;-60
2023/12/09 05:00:03;;;;;;;32.92;13.18;;;;;;;5.32;100.00;161956.75;5052722;28;20045;-60
2023/12/09 05:02:28;;;;;;;34.30;11.73;;;;;;;5.30;100.00;161951.34;5053833;28;20033;-60
2023/12/09 05:04:54;;;;;;;44.05;15.10;;;;;;;5.31;100.00;161955.44;5052357;28;20045;-60
2023/12/09 05:07:19;;;;;;;31.30;12.40;;;;;;;5.34;100.00;161963.47;5053746;28;20029;-60
2023/12/09 05:09:44;;;;;;;23.20;11.18;;;;;;;5.34;100.00;161963.47;5052843;28;20041;-60
2023/12/09 05:12:10;;;;;;;27.33;10.68;;;;;;;5.38;100.00;161974.25;5053696;28;20025;-63
2023/12/09 05:14:35;;;;;;;33.63;11.02;;;;;;;5.41;100.00;161980.97;5051600;28;20106;-58
2023/12/09 05:17:01;;;;;;;27.75;10.20;;;;;;;5.45;100.00;161990.41;5060948;28;20032;-58
2023/12/09 05:19:26;;;;;;;31.73;13.75;;;;;;;5.49;100.00;162002.50;5071115;28;20048;-58
2023/12/09 05:21:51;;;;;;;23.25;10.13;;;;;;;5.56;100.00;162019.97;5052475;28;20032;-59
2023/12/09 05:24:18;;;;;;;39.63;15.32;;;;;;;5.60;100.00;162030.75;5052110;28;20033;-59
2023/12/09 05:26:43;;;;;;;23.10;12.10;;;;;;;5.65;100.00;162044.19;5052299;28;20495;-59
2023/12/09 05:29:09;;;;;;;24.45;11.00;;;;;;;5.66;100.00;162046.91;5057952;28;20032;-58
2023/12/09 05:31:34;;;;;;;20.90;10.52;;;;;;;5.72;100.00;162063.03;5055017;28;20025;-59
2023/12/09 05:33:59;;;;;;;28.35;11.50;;;;;;;5.72;100.00;162063.03;5055031;28;20017;-58
2023/12/09 05:36:25;;;;;;;22.15;10.65;;;;;;;5.74;100.00;162065.72;5053203;28;20041;-59
2023/12/09 05:38:50;;;;;;;21.02;8.95;;;;;;;5.80;100.00;162083.25;5053071;28;20067;-59
2023/12/09 05:41:15;;;;;;;23.00;10.32;;;;;;;5.79;100.00;162080.53;5051171;28;20086;-59
2023/12/09 05:43:43;;;;;;;29.10;10.50;;;;;;;5.79;100.00;162080.53;5053466;28;20036;-59
2023/12/09 05:46:08;;;;;;;47.13;12.73;;;;;;;5.78;100.00;162077.84;5049162;28;20064;-59
2023/12/09 05:48:34;;;;;;;30.20;8.93;;;;;;;5.83;100.00;162089.97;5050741;28;20031;-58
2023/12/09 05:50:59;;;;;;;36.40;9.73;;;;;;;5.86;100.00;162098.00;5050599;28;20123;-58
2023/12/09 05:53:25;;;;;;;25.02;8.88;;;;;;;5.89;100.00;162106.09;5052699;28;20397;-58
2023/12/09 05:55:51;;;;;;;19.65;10.13;;;;;;;5.78;100.00;162076.47;5049198;28;20519;-59
2023/12/09 05:58:16;;;;;;;28.10;10.75;;;;;;;5.78;100.00;162077.84;5052483;28;20017;-58
2023/12/09 06:00:43;;;;;;;27.45;9.43;;;;;;;5.71;100.00;162059.00;5051121;28;20045;-58
2023/12/09 06:03:09;;;;;;;50.28;12.73;;;;;;;5.73;100.00;162064.41;5050649;28;20100;-59
2023/12/09 06:05:34;;;;;;;19.65;8.93;;;;;;;5.69;100.00;162055.00;5051024;28;20041;-58
2023/12/09 06:07:59;;;;;;;23.35;10.10;;;;;;;5.61;100.00;162033.47;5052243;28;20088;-59
2023/12/09 06:10:25;;;;;;;22.08;7.97;;;;;;;5.45;100.00;161991.72;5049374;28;20044;-58
2023/12/09 06:12:50;;;;;;;20.92;7.88;;;;;;;5.33;100.00;161959.44;5052316;28;20028;-59
2023/12/09 06:15:15;;;;;;;33.05;11.18;;;;;;;5.34;100.00;161963.47;5050705;28;20524;-58
2023/12/09 06:17:41;;;;;;;54.28;13.43;;;;;;;5.24;100.00;161936.59;5050806;28;20075;-58
2023/12/09 06:20:08;;;;;;;22.00;9.52;;;;;;;5.22;100.00;161931.19;5051092;28;20048;-59
2023/12/09 06:22:33;;;;;;;27.88;8.10;;;;;;;5.20;100.00;161925.81;5051866;28;20491;-59
2023/12/09 06:24:59;;;;;;;20.70;9.50;;;;;;;5.18;100.00;161920.41;5049462;28;20111;-59
2023/12/09 06:27:25;;;;;;;20.30;8.00;;;;;;;5.21;100.00;161928.50;5051655;28;20021;-59
2023/12/09 06:29:51;;;;;;;27.08;9.32;;;;;;;5.19;100.00;161923.13;5057423;28;20539;-59
2023/12/09 06:32:16;;;;;;;27.80;9.63;;;;;;;5.08;100.00;161896.25;5050407;28;20033;-59
2023/12/09 06:34:41;;;;;;;21.10;7.72;;;;;;;5.14;100.00;161909.69;5049953;28;20049;-59
2023/12/09 06:37:07;;;;;;;26.98;8.95;;;;;;;5.07;100.00;161893.53;5058717;28;20048;-59
2023/12/09 06:39:33;;;;;;;21.67;7.40;;;;;;;5.01;100.00;161876.03;5054707;28;20037;-59
2023/12/09 06:41:59;;;;;;;21.27;7.10;;;;;;;5.02;100.00;161878.75;5052017;28;20021;-59
2023/12/09 06:44:25;;;;;;;26.67;9.50;;;;;;;4.99;100.00;161872.03;5050152;28;20033;-59
2023/12/09 06:46:50;;;;;;;27.05;11.27;;;;;;;4.99;100.00;161872.03;5049879;28;20032;-59
2023/12/09 06:49:17;;;;;;;18.70;9.52;;;;;;;5.04;100.00;161884.13;5054539;28;20694;-59
2023/12/09 06:51:43;;;;;;;34.50;9.23;;;;;;;5.05;100.00;161888.16;5071913;28;20046;-59
2023/12/09 06:54:09;;;;;;;43.03;8.85;;;;;;;5.05;100.00;161888.16;5054443;28;20498;-59
2023/12/09 06:56:36;;;;;;;15.63;9.45;;;;;;;5.03;100.00;161882.75;5062525;28;20024;-59
2023/12/09 06:59:01;;;;;;;34.35;10.45;;;;;;;4.98;100.00;161869.31;5066927;28;20100;-59
2023/12/09 07:01:28;;;;;;;13.60;6.90;;;;;;;5.02;100.00;161880.13;5069120;28;20694;-59
2023/12/09 07:03:53;;;;;;;23.55;6.47;;;;;;;5.03;100.00;161881.44;5070270;28;20044;-58
2023/12/09 07:06:22;;;;;;;30.40;9.43;;;;;;;5.06;100.00;161890.84;5052944;28;20468;-59
2023/12/09 07:08:48;;;;;;;42.65;9.85;;;;;;;5.05;100.00;161888.16;5043496;28;20033;-59
2023/12/09 07:11:15;;;;;;;24.33;7.57;;;;;;;5.07;100.00;161893.53;5040719;28;20041;-57
2023/12/09 07:13:41;;;;;;;34.47;8.77;;;;;;;5.08;100.00;161896.25;5031595;28;20155;-57
2023/12/09 07:16:09;;;;;;;32.95;8.43;;;;;;;5.14;100.00;161909.69;5028576;28;20041;-57
2023/12/09 07:18:34;;;;;;;19.55;7.35;;;;;;;5.15;100.00;161913.69;5040040;28;20494;-57
2023/12/09 07:21:00;;;;;;;37.35;8.98;;;;;;;5.22;100.00;161931.19;5068197;28;20119;-57
2023/12/09 07:23:25;;;;;;;29.27;12.88;;;;;;;5.21;100.00;161928.50;5061318;28;20169;-57
2023/12/09 07:25:51;;;;;;;24.80;8.15;;;;;;;5.24;100.00;161937.91;5049572;28;20086;-57
2023/12/09 07:28:16;;;;;;;20.08;8.52;;;;;;;5.28;100.00;161947.34;5049827;28;20048;-56
2023/12/09 07:30:41;;;;;;;20.92;9.63;;;;;;;5.30;100.00;161952.72;5048705;28;20072;-56
2023/12/09 07:33:07;;;;;;;20.15;7.68;;;;;;;5.33;100.00;161960.78;5050146;28;20033;-57
2023/12/09 07:35:33;;;;;;;20.42;7.95;;;;;;;5.39;100.00;161976.97;5048937;28;20037;-57
2023/12/09 07:37:58;;;;;;;23.35;7.85;;;;;;;5.45;100.00;161990.41;5050137;28;20045;-57
2023/12/09 07:40:24;;;;;;;18.80;8.38;;;;;;;5.45;100.00;161990.41;5049073;28;20067;-57
2023/12/09 07:42:49;;;;;;;42.72;10.60;;;;;;;5.49;100.00;162002.50;5050699;28;20033;-57
2023/12/09 07:45:14;;;;;;;32.25;10.25;;;;;;;5.55;100.00;162017.28;5048840;28;20036;-57
2023/12/09 07:47:40;;;;;;;24.13;6.97;;;;;;;5.59;100.00;162026.69;5049833;28;20499;-57
2023/12/09 07:50:05;;;;;;;25.10;7.22;;;;;;;5.60;100.00;162030.75;5049254;28;20049;-57
2023/12/09 07:52:31;;;;;;;24.60;8.48;;;;;;;5.64;100.00;162041.50;5050047;28;20024;-57
2023/12/09 07:54:56;;;;;;;18.63;7.60;;;;;;;5.67;100.00;162049.59;5048759;28;20049;-57
2023/12/09 07:57:22;;;;;;;16.15;8.23;;;;;;;5.68;100.00;162050.91;5062818;28;20047;-57
2023/12/09 07:59:47;;;;;;;32.63;10.70;;;;;;;5.68;100.00;162052.28;5050840;28;20049;-57
2023/12/09 08:02:13;;;;;;;24.25;9.20;;;;;;;5.72;100.00;162061.72;5069513;28;20028;-57
2023/12/09 08:04:38;;;;;;;20.15;7.10;;;;;;;5.74;100.00;162065.72;5060943;28;20048;-57
2023/12/09 08:07:04;;;;;;;27.65;7.88;;;;;;;5.75;100.00;162068.44;5048124;28;20037;-57
2023/12/09 08:09:29;;;;;;;15.25;5.97;;;;;;;5.80;100.00;162081.88;5048347;28;20033;-57
2023/12/09 08:11:55;;;;;;;18.63;6.05;;;;;;;5.79;100.00;162079.16;5050346;28;20024;-57
2023/12/09 08:14:21;;;;;;;45.83;8.93;;;;;;;5.81;100.00;162084.56;5047189;28;20052;-57
2023/12/09 08:16:46;;;;;;;17.17;7.57;;;;;;;5.84;100.00;162092.66;5049476;28;20093;-57
2023/12/09 08:19:13;;;;;;;19.90;9.05;;;;;;;5.88;100.00;162103.41;5048653;28;20082;-57
2023/12/09 08:21:39;;;;;;;20.35;9.48;;;;;;;5.94;100.00;162118.22;5049647;28;20476;-57
2023/12/09 08:24:04;;;;;;;22.55;8.43;;;;;;;5.91;100.00;162111.50;5047559;28;20036;-57
2023/12/09 08:26:30;;;;;;;15.95;8.63;;;;;;;5.99;100.00;162133.09;5049352;28;20021;-57
2023/12/09 08:28:55;;;;;;;20.63;9.75;;;;;;;6.06;100.00;162149.22;5046762;28;20021;-57
2023/12/09 08:31:21;;;;;;;12.60;6.03;;;;;;;6.02;100.00;162141.13;5048793;28;20021;-57
2023/12/09 08:33:46;;;;;;;12.85;6.40;;;;;;;6.02;100.00;162139.81;5049404;28;20061;-57
2023/12/09 08:36:12;;;;;;;15.25;6.65;;;;;;;6.02;100.00;162141.13;5047690;28;20079;-57
2023/12/09 08:38:37;;;;;;;21.25;8.68;;;;;;;6.02;100.00;162141.13;5049209;28;20043;-57
2023/12/09 08:41:02;;;;;;;12.73;6.63;;;;;;;6.08;100.00;162154.56;5048374;28;20045;-57
2023/12/09 08:43:28;;;;;;;17.02;9.20;;;;;;;6.14;100.00;162170.75;5049725;28;20036;-58
2023/12/09 08:45:53;;;;;;;12.57;6.75;;;;;;;6.15;100.00;162174.78;5048397;28;20072;-57
2023/12/09 08:48:19;;;;;;;14.18;6.15;;;;;;;6.16;100.00;162176.13;5049969;28;20025;-57
2023/12/09 08:50:44;;;;;;;11.02;6.00;;;;;;;6.22;100.00;162192.25;5048580;28;20560;-57
2023/12/09 08:53:09;;;;;;;18.23;7.70;;;;;;;6.27;100.00;162205.75;5049862;28;20024;-57
2023/12/09 08:55:35;;;;;;;16.70;6.85;;;;;;;6.35;100.00;162225.91;5048295;28;20033;-57
2023/12/09 08:58:00;;;;;;;13.60;7.63;;;;;;;6.48;100.00;162259.59;5049747;28;20021;-57
2023/12/09 09:00:26;;;;;;;17.73;8.65;;;;;;;6.69;100.00;162313.44;5047249;28;20033;-59
2023/12/09 09:02:55;;;;;;;17.05;8.85;;;;;;;6.76;100.00;162332.28;5064802;28;20029;-56
2023/12/09 09:05:22;;;;;;;16.48;8.65;;;;;;;6.81;100.00;162345.78;5068071;28;20043;-56
2023/12/09 09:07:47;;;;;;;19.17;6.95;;;;;;;-146.58;100.00;69501.63;5056140;28;20032;-56
2023/12/09 09:10:13;;;;;;;14.30;7.32;;;;;;;-146.58;100.00;69501.63;5056874;28;20048;-56
2023/12/09 09:12:39;;;;;;;26.13;8.82;;;;;;;-146.58;100.00;69501.63;5057835;28;20074;-56
2023/12/09 09:15:04;;;;;;;15.18;6.10;;;;;;;-146.58;100.00;69501.63;5047366;28;20514;-56
2023/12/09 09:17:30;;;;;;;11.65;5.65;;;;;;;-146.58;100.00;69501.63;5048664;28;20039;-56
2023/12/09 09:19:55;;;;;;;10.98;5.35;;;;;;;6.88;100.00;162364.63;5046239;28;20103;-56
2023/12/09 09:22:21;;;;;;;13.57;6.85;;;;;;;6.95;100.00;162383.47;5047429;28;20025;-56
2023/12/09 09:24:47;;;;;;;10.45;6.32;;;;;;;6.99;100.00;162394.22;5040116;28;20535;-57
2023/12/09 09:27:13;;;;;;;14.43;5.80;;;;;;;7.07;100.00;162413.06;5033451;28;20069;-57
2023/12/09 09:29:39;;;;;;;13.23;5.95;;;;;;;7.10;100.00;162421.19;5030129;28;20073;-57
2023/12/09 09:32:05;;;;;;;13.25;6.93;;;;;;;7.06;100.00;162410.38;5031508;28;20021;-58
2023/12/09 09:34:30;;;;;;;15.10;5.68;;;;;;;7.05;100.00;162409.03;5030644;28;20081;-58
2023/12/09 09:36:55;;;;;;;18.80;6.43;;;;;;;7.08;100.00;162415.78;5032799;28;20046;-58
2023/12/09 09:39:21;;;;;;;10.50;5.80;;;;;;;7.11;100.00;162425.19;5031453;28;20037;-58
2023/12/09 09:42:03;;;;;;;13.82;7.15;;;;;;;7.25;100.00;162460.22;5032869;28;20029;-58
2023/12/09 09:44:33;;;;;;;12.32;5.05;;;;;;;7.28;100.00;162469.63;5016540;28;20060;-58
2023/12/09 09:47:00;;;;;;;15.15;6.97;;;;;;;7.30;100.00;162475.03;5032968;28;20026;-58
2023/12/09 09:49:29;;;;;;;15.05;5.88;;;;;;;7.29;100.00;162472.34;5041550;28;20045;-58
2023/12/09 09:51:57;;;;;;;22.08;6.38;;;;;;;7.25;100.00;162461.59;5052575;28;20090;-58
2023/12/09 09:54:27;;;;;;;15.30;6.80;;;;;;;7.33;100.00;162480.44;5051330;28;20041;-58
2023/12/09 09:56:53;;;;;;;10.65;4.20;;;;;;;7.36;100.00;162488.50;5052980;28;20032;-58
2023/12/09 09:59:19;;;;;;;16.02;5.97;;;;;;;7.48;100.00;162520.84;5050431;28;20040;-58
2023/12/09 10:01:44;;;;;;;13.13;6.13;;;;;;;7.53;100.00;162534.31;5052530;28;20507;-58
2023/12/09 10:04:11;;;;;;;10.00;4.53;;;;;;;7.63;100.00;162561.22;5051425;28;20029;-59
2023/12/09 10:06:36;;;;;;;11.70;7.03;;;;;;;7.67;100.00;162569.31;5052082;28;20112;-58
2023/12/09 10:09:02;;;;;;;10.68;5.40;;;;;;;7.59;100.00;162549.13;5040642;28;20033;-58
2023/12/09 10:11:27;;;;;;;15.70;6.18;;;;;;;7.69;100.00;162574.72;5040624;28;20022;-58
2023/12/09 10:13:53;;;;;;;14.68;5.57;;;;;;;7.70;100.00;162577.44;5052181;28;20032;-58
2023/12/09 10:16:18;;;;;;;14.85;4.28;;;;;;;7.67;100.00;162569.31;5050607;28;20098;-58
2023/12/09 10:18:47;;;;;;;6.28;4.78;;;;;;;7.63;100.00;162561.22;5052617;28;20400;-59
2023/12/09 10:21:16;;;;;;;12.70;5.72;;;;;;;7.62;100.00;162558.56;5050214;28;20037;-58
2023/12/09 10:23:44;;;;;;;22.73;6.22;;;;;;;7.58;100.00;162547.75;5051968;28;20107;-58
2023/12/09 10:26:10;;;;;;;12.43;5.35;;;;;;;7.52;100.00;162531.59;5050827;28;20037;-58
2023/12/09 10:28:35;;;;;;;13.05;6.22;;;;;;;7.55;100.00;162538.34;5051570;28;20017;-58
2023/12/09 10:31:02;;;;;;;9.85;4.65;;;;;;;7.54;100.00;162537.00;5050786;28;20231;-58
2023/12/09 10:33:31;;;;;;;10.35;5.72;;;;;;;7.57;100.00;162545.06;5051812;28;20468;-58
2023/12/09 10:35:57;;;;;;;15.35;5.25;;;;;;;7.55;100.00;162538.34;5049122;28;20493;-58
2023/12/09 10:38:22;;;;;;;13.48;4.85;;;;;;;7.57;100.00;162545.06;5051624;28;20066;-58
2023/12/09 10:40:49;;;;;;;14.25;6.80;;;;;;;7.56;100.00;162541.03;5050534;28;20059;-58
2023/12/09 10:43:15;;;;;;;13.52;5.43;;;;;;;7.63;100.00;162559.91;5051191;28;20020;-58
2023/12/09 10:45:41;;;;;;;17.55;5.65;;;;;;;7.62;100.00;162558.56;5050182;28;20040;-58
2023/12/09 10:48:06;;;;;;;7.80;4.00;;;;;;;7.71;100.00;162580.09;5051829;28;20104;-58
2023/12/09 10:50:33;;;;;;;14.35;4.90;;;;;;;7.72;100.00;162582.78;5049870;28;20048;-58
2023/12/09 10:52:58;;;;;;;9.68;4.50;;;;;;;7.69;100.00;162574.72;5051918;28;20036;-58
2023/12/09 10:55:24;;;;;;;12.88;4.53;;;;;;;7.71;100.00;162580.09;5049887;28;20029;-58
2023/12/09 10:57:50;;;;;;;7.95;5.22;;;;;;;7.87;100.00;162623.22;5051296;28;20104;-58
2023/12/09 11:00:16;;;;;;;9.93;3.90;;;;;;;7.90;100.00;162631.31;5047051;28;20048;-58
2023/12/09 11:02:43;;;;;;;15.73;6.45;;;;;;;7.98;100.00;162650.19;5049528;28;20528;-58
2023/12/09 11:05:09;;;;;;;9.05;4.47;;;;;;;7.96;100.00;162644.78;5049938;28;20136;-58